createdAt,value
2023-05-05T00:00:51.717Z,13.90
2023-05-05T00:04:33.483Z,13.90
2023-05-05T00:08:15.697Z,13.90
2023-05-05T00:11:57.541Z,14.00
2023-05-05T00:15:40.159Z,14.00
2023-05-05T00:19:21.936Z,13.90
2023-05-05T00:23:04.300Z,14.00
2023-05-05T00:26:46.156Z,13.90
2023-05-05T00:30:28.049Z,13.90
2023-05-05T00:34:10.055Z,14.00
2023-05-05T00:37:51.825Z,14.00
2023-05-05T00:41:33.586Z,14.00
2023-05-05T00:45:16.691Z,13.90
2023-05-05T00:48:59.771Z,13.90
2023-05-05T00:52:41.655Z,14.00
2023-05-05T00:56:24.691Z,13.90
2023-05-05T01:00:09.986Z,13.90
2023-05-05T01:03:52.239Z,13.90
2023-05-05T01:07:43.449Z,13.90
2023-05-05T01:11:40.146Z,13.80
2023-05-05T01:15:32.439Z,13.80
2023-05-05T01:19:35.013Z,13.60
2023-05-05T01:23:40.892Z,13.60
2023-05-05T01:27:55.575Z,13.60
2023-05-05T01:31:52.049Z,13.60
2023-05-05T01:35:39.992Z,13.50
2023-05-05T01:39:27.311Z,13.60
2023-05-05T01:43:12.383Z,13.60
2023-05-05T01:46:55.673Z,13.60
2023-05-05T01:50:38.083Z,13.50
2023-05-05T01:54:21.482Z,13.60
2023-05-05T01:58:05.886Z,13.60
2023-05-05T02:01:48.932Z,13.60
2023-05-05T02:05:33.017Z,13.60
2023-05-05T02:09:16.098Z,13.60
2023-05-05T02:13:01.730Z,13.70
2023-05-05T02:16:44.275Z,13.60
2023-05-05T02:20:28.154Z,13.60
2023-05-05T02:24:10.324Z,13.60
2023-05-05T02:27:57.801Z,13.60
2023-05-05T02:31:44.827Z,13.60
2023-05-05T02:35:36.705Z,13.50
2023-05-05T02:39:35.647Z,13.50
2023-05-05T02:43:21.058Z,13.50
2023-05-05T02:47:04.870Z,13.50
2023-05-05T02:50:46.670Z,13.40
2023-05-05T02:54:28.883Z,13.40
2023-05-05T02:58:23.563Z,13.40
2023-05-05T03:02:38.994Z,13.40
2023-05-05T03:06:22.791Z,13.40
2023-05-05T03:10:09.651Z,13.40
2023-05-05T03:14:01.129Z,13.40
2023-05-05T03:17:46.440Z,13.40
2023-05-05T03:21:28.541Z,13.40
2023-05-05T03:25:10.348Z,13.40
2023-05-05T03:28:52.141Z,13.40
2023-05-05T03:32:34.032Z,13.40
2023-05-05T03:36:15.760Z,13.30
2023-05-05T03:39:57.489Z,13.40
2023-05-05T03:43:39.424Z,13.40
2023-05-05T03:47:24.486Z,13.40
2023-05-05T03:51:06.285Z,13.40
2023-05-05T03:54:48.081Z,13.40
2023-05-05T03:58:29.860Z,13.40
2023-05-05T04:02:11.693Z,13.30
2023-05-05T04:05:53.429Z,13.30
2023-05-05T04:09:35.266Z,13.30
2023-05-05T04:13:17.100Z,13.30
2023-05-05T04:16:58.895Z,13.30
2023-05-05T04:20:40.631Z,13.30
2023-05-05T04:24:24.820Z,13.30
2023-05-05T04:28:06.620Z,13.20
2023-05-05T04:31:48.437Z,13.20
2023-05-05T04:35:30.249Z,13.20
2023-05-05T04:39:12.017Z,13.20
2023-05-05T04:42:53.765Z,13.20
2023-05-05T04:46:35.823Z,13.20
2023-05-05T04:50:17.704Z,13.20
2023-05-05T04:53:59.431Z,13.30
2023-05-05T04:57:41.218Z,13.20
2023-05-05T05:01:23.021Z,13.30
2023-05-05T05:05:05.376Z,13.20
2023-05-05T05:08:47.172Z,13.20
2023-05-05T05:12:28.884Z,13.20
2023-05-05T05:16:11.524Z,13.30
2023-05-05T05:19:55.202Z,13.30
2023-05-05T05:23:36.968Z,13.30
2023-05-05T05:27:18.749Z,13.30
2023-05-05T05:31:00.598Z,13.30
2023-05-05T05:34:42.327Z,13.30
2023-05-05T05:38:24.127Z,13.30
2023-05-05T05:42:05.869Z,13.40
2023-05-05T05:45:47.774Z,13.40
2023-05-05T05:49:29.506Z,13.40
2023-05-05T05:53:11.323Z,13.40
2023-05-05T05:56:53.027Z,13.40
2023-05-05T06:00:34.792Z,13.40
2023-05-05T06:04:16.571Z,13.40
2023-05-05T06:07:58.310Z,13.40
2023-05-05T06:11:40.174Z,13.40
2023-05-05T06:15:21.980Z,13.50
2023-05-05T06:19:05.166Z,13.50
2023-05-05T06:22:46.965Z,13.60
2023-05-05T06:26:28.914Z,13.60
2023-05-05T06:30:11.494Z,13.70
2023-05-05T06:33:53.239Z,13.70
2023-05-05T06:37:35.051Z,13.70
2023-05-05T06:41:16.947Z,13.80
2023-05-05T06:44:58.645Z,13.80
2023-05-05T06:48:40.348Z,13.90
2023-05-05T06:52:22.921Z,14.10
2023-05-05T06:56:04.979Z,14.30
2023-05-05T06:59:46.780Z,14.40
2023-05-05T07:03:28.545Z,14.40
2023-05-05T07:07:10.491Z,14.50
2023-05-05T07:10:52.236Z,14.50
2023-05-05T07:14:33.973Z,14.50
2023-05-05T07:18:16.799Z,14.50
2023-05-05T07:21:58.528Z,14.50
2023-05-05T07:25:40.272Z,14.60
2023-05-05T07:29:22.019Z,14.60
2023-05-05T07:33:04.130Z,14.60
2023-05-05T07:36:45.973Z,14.70
2023-05-05T07:40:27.707Z,14.80
2023-05-05T07:44:09.550Z,14.80
2023-05-05T07:47:51.361Z,14.80
2023-05-05T07:51:34.612Z,14.80
2023-05-05T07:55:16.851Z,14.80
2023-05-05T07:58:58.676Z,14.80
2023-05-05T08:02:41.260Z,14.90
2023-05-05T08:06:24.885Z,14.90
2023-05-05T08:10:08.860Z,14.90
2023-05-05T08:13:50.593Z,15.00
2023-05-05T08:17:54.191Z,15.10
2023-05-05T08:21:36.150Z,15.20
2023-05-05T08:25:17.931Z,15.30
2023-05-05T08:29:01.097Z,15.30
2023-05-05T08:32:42.950Z,15.30
2023-05-05T08:36:25.161Z,15.30
2023-05-05T08:40:07.607Z,15.20
2023-05-05T08:43:50.532Z,15.20
2023-05-05T08:47:32.788Z,15.30
2023-05-05T08:51:19.081Z,15.40
2023-05-05T08:55:17.697Z,15.60
2023-05-05T08:59:01.292Z,15.90
2023-05-05T09:02:44.105Z,15.90
2023-05-05T09:06:27.381Z,15.90
2023-05-05T09:10:10.322Z,16.00
2023-05-05T09:13:52.128Z,16.10
2023-05-05T09:17:33.937Z,16.20
2023-05-05T09:21:21.029Z,16.30
2023-05-05T09:25:03.722Z,16.30
2023-05-05T09:28:52.745Z,16.30
2023-05-05T09:32:51.918Z,16.30
2023-05-05T09:36:48.027Z,16.30
2023-05-05T09:40:54.071Z,16.40
2023-05-05T09:44:37.216Z,16.40
2023-05-05T09:48:28.675Z,16.50
2023-05-05T09:52:17.719Z,16.40
2023-05-05T09:56:00.915Z,16.40
2023-05-05T09:59:55.393Z,16.50
2023-05-05T10:03:52.044Z,16.40
2023-05-05T10:07:34.555Z,16.50
2023-05-05T10:11:16.326Z,16.70
2023-05-05T10:15:01.195Z,16.90
2023-05-05T10:18:46.837Z,17.10
2023-05-05T10:22:33.481Z,17.30
2023-05-05T10:26:16.901Z,17.40
2023-05-05T10:30:06.138Z,17.40
2023-05-05T10:33:56.559Z,17.40
2023-05-05T10:37:39.277Z,17.50
2023-05-05T10:41:21.561Z,17.40
2023-05-05T10:45:03.475Z,17.50
2023-05-05T10:49:04.077Z,17.50
2023-05-05T10:52:51.317Z,17.40
2023-05-05T10:56:34.920Z,17.30
2023-05-05T11:00:42.726Z,17.30
2023-05-05T11:04:24.845Z,17.20
2023-05-05T11:08:26.766Z,17.20
2023-05-05T11:12:09.332Z,17.30
2023-05-05T11:16:32.696Z,17.40
2023-05-05T11:20:14.866Z,17.40
2023-05-05T11:24:28.102Z,17.50
2023-05-05T11:28:11.145Z,17.70
2023-05-05T11:32:12.870Z,17.80
2023-05-05T11:35:54.626Z,18.00
2023-05-05T11:39:47.075Z,18.00
2023-05-05T11:43:28.872Z,18.30
2023-05-05T11:47:10.868Z,18.60
2023-05-05T11:50:53.571Z,19.00
2023-05-05T11:54:37.377Z,19.00
2023-05-05T11:58:22.169Z,19.10
2023-05-05T12:02:04.692Z,19.10
2023-05-05T12:05:48.739Z,19.10
2023-05-05T12:09:30.744Z,18.90
2023-05-05T12:13:22.059Z,18.80
2023-05-05T12:17:10.613Z,18.80
2023-05-05T12:20:52.935Z,18.80
2023-05-05T12:24:34.884Z,18.80
2023-05-05T12:28:16.684Z,18.90
2023-05-05T12:32:00.241Z,19.10
2023-05-05T12:35:42.265Z,19.20
2023-05-05T12:39:33.957Z,19.20
2023-05-05T12:43:27.077Z,19.20
2023-05-05T12:47:08.981Z,19.10
2023-05-05T12:50:50.914Z,19.20
2023-05-05T12:54:32.729Z,19.50
2023-05-05T12:58:14.462Z,19.90
2023-05-05T13:01:58.065Z,20.30
2023-05-05T13:05:41.192Z,20.40
2023-05-05T13:09:24.076Z,20.60
2023-05-05T13:13:07.797Z,20.80
2023-05-05T13:16:49.908Z,21.10
2023-05-05T13:20:31.616Z,21.10
2023-05-05T13:24:25.971Z,20.80
2023-05-05T13:28:10.694Z,21.00
2023-05-05T13:31:52.471Z,21.40
2023-05-05T13:35:34.239Z,21.40
2023-05-05T13:39:16.084Z,21.30
2023-05-05T13:42:57.867Z,21.40
2023-05-05T13:46:40.466Z,21.80
2023-05-05T13:50:22.434Z,22.10
2023-05-05T13:54:04.627Z,21.80
2023-05-05T13:57:46.505Z,21.10
2023-05-05T14:01:28.725Z,20.90
2023-05-05T14:05:10.822Z,20.70
2023-05-05T14:08:52.964Z,20.30
2023-05-05T14:12:34.776Z,20.00
2023-05-05T14:16:16.550Z,20.00
2023-05-05T14:19:58.553Z,20.80
2023-05-05T14:23:40.271Z,21.50
2023-05-05T14:27:22.014Z,21.60
2023-05-05T14:31:03.865Z,21.70
2023-05-05T14:34:46.715Z,21.60
2023-05-05T14:38:29.578Z,21.40
2023-05-05T14:42:11.396Z,21.20
2023-05-05T14:45:53.238Z,21.00
2023-05-05T14:49:35.085Z,20.70
2023-05-05T14:53:18.889Z,20.60
2023-05-05T14:57:00.666Z,21.10
2023-05-05T15:00:42.417Z,21.50
2023-05-05T15:04:24.120Z,22.20
2023-05-05T15:08:06.504Z,22.20
2023-05-05T15:11:48.312Z,22.20
2023-05-05T15:15:30.039Z,22.60
2023-05-05T15:19:11.828Z,23.20
2023-05-05T15:22:54.898Z,23.80
2023-05-05T15:26:36.734Z,24.10
2023-05-05T15:30:18.605Z,23.50
2023-05-05T15:34:00.338Z,22.90
2023-05-05T15:37:42.553Z,22.80
2023-05-05T15:41:27.119Z,22.90
2023-05-05T15:45:12.049Z,23.50
2023-05-05T15:48:53.788Z,23.90
2023-05-05T15:52:35.543Z,24.30
2023-05-05T15:56:17.402Z,24.60
2023-05-05T15:59:59.222Z,24.50
2023-05-05T16:03:41.182Z,23.90
2023-05-05T16:07:23.067Z,23.90
2023-05-05T16:11:04.881Z,24.40
2023-05-05T16:14:47.158Z,25.00
2023-05-05T16:18:29.348Z,25.30
2023-05-05T16:22:11.142Z,24.90
2023-05-05T16:25:52.864Z,25.00
2023-05-05T16:29:34.571Z,24.40
2023-05-05T16:33:16.320Z,24.20
2023-05-05T16:36:59.161Z,24.60
2023-05-05T16:40:41.035Z,24.90
2023-05-05T16:44:22.798Z,24.30
2023-05-05T16:48:06.806Z,23.50
2023-05-05T16:51:52.499Z,22.70
2023-05-05T16:55:34.285Z,22.00
2023-05-05T16:59:18.311Z,21.60
2023-05-05T17:03:00.230Z,21.60
2023-05-05T17:06:41.973Z,22.40
2023-05-05T17:10:23.870Z,23.20
2023-05-05T17:14:07.609Z,23.30
2023-05-05T17:17:50.778Z,22.90
2023-05-05T17:21:33.919Z,22.40
2023-05-05T17:25:16.322Z,22.90
2023-05-05T17:28:58.213Z,23.20
2023-05-05T17:32:40.044Z,23.60
2023-05-05T17:36:21.841Z,23.20
2023-05-05T17:40:05.228Z,22.40
2023-05-05T17:43:47.082Z,22.20
2023-05-05T17:47:30.397Z,22.20
2023-05-05T17:51:12.254Z,22.60
2023-05-05T17:54:54.008Z,23.00
2023-05-05T17:58:35.812Z,22.80
2023-05-05T18:02:19.047Z,22.40
2023-05-05T18:06:02.354Z,22.60
2023-05-05T18:09:44.105Z,22.60
2023-05-05T18:13:25.879Z,22.50
2023-05-05T18:17:07.593Z,22.40
2023-05-05T18:20:49.789Z,22.20
2023-05-05T18:24:31.802Z,22.10
2023-05-05T18:28:13.539Z,22.20
2023-05-05T18:31:55.396Z,22.20
2023-05-05T18:35:37.261Z,22.10
2023-05-05T18:39:19.188Z,21.90
2023-05-05T18:43:01.229Z,21.70
2023-05-05T18:46:46.997Z,21.50
2023-05-05T18:50:28.798Z,21.20
2023-05-05T18:54:10.803Z,20.90
2023-05-05T18:57:53.027Z,20.40
2023-05-05T19:01:34.888Z,19.80
2023-05-05T19:05:16.760Z,19.30
2023-05-05T19:08:58.556Z,18.90
2023-05-05T19:12:40.407Z,18.50
2023-05-05T19:16:22.521Z,18.20
2023-05-05T19:20:04.720Z,17.90
2023-05-05T19:23:46.524Z,17.80
2023-05-05T19:27:28.330Z,17.50
2023-05-05T19:31:10.206Z,17.40
2023-05-05T19:34:54.232Z,17.20
2023-05-05T19:38:36.582Z,17.10
2023-05-05T19:42:18.681Z,17.10
2023-05-05T19:46:00.451Z,17.00
2023-05-05T19:49:42.244Z,17.00
2023-05-05T19:53:25.170Z,17.00
2023-05-05T19:57:07.513Z,17.00
2023-05-05T20:00:49.410Z,17.00
2023-05-05T20:04:31.144Z,17.00
2023-05-05T20:08:12.848Z,16.90
2023-05-05T20:11:56.442Z,16.90
2023-05-05T20:15:38.222Z,16.90
2023-05-05T20:19:20.020Z,16.90
2023-05-05T20:23:01.995Z,16.90
2023-05-05T20:26:43.754Z,16.90
2023-05-05T20:30:25.586Z,16.80
2023-05-05T20:34:07.489Z,16.70
2023-05-05T20:37:49.340Z,16.70
2023-05-05T20:41:31.266Z,16.60
2023-05-05T20:45:13.364Z,16.50
2023-05-05T20:48:55.090Z,16.40
2023-05-05T20:52:36.935Z,16.20
2023-05-05T20:56:18.750Z,16.10
2023-05-05T21:00:00.459Z,15.90
2023-05-05T21:03:42.221Z,15.90
2023-05-05T21:07:23.951Z,15.70
2023-05-05T21:11:09.936Z,15.70
2023-05-05T21:14:52.469Z,15.70
2023-05-05T21:18:34.172Z,15.70
2023-05-05T21:22:15.904Z,15.70
2023-05-05T21:25:57.743Z,15.70
2023-05-05T21:29:39.568Z,15.70
2023-05-05T21:33:21.291Z,15.60
2023-05-05T21:37:03.468Z,15.60
2023-05-05T21:40:45.284Z,15.50
2023-05-05T21:44:28.241Z,15.50
2023-05-05T21:48:10.077Z,15.40
2023-05-05T21:51:51.818Z,15.40
2023-05-05T21:55:33.560Z,15.40
2023-05-05T21:59:16.560Z,15.40
2023-05-05T22:02:59.118Z,15.40
2023-05-05T22:06:40.957Z,15.50
2023-05-05T22:10:23.452Z,15.40
2023-05-05T22:14:05.215Z,15.40
2023-05-05T22:17:47.021Z,15.40
2023-05-05T22:21:28.774Z,15.40
2023-05-05T22:25:10.878Z,15.40
2023-05-05T22:28:52.870Z,15.50
2023-05-05T22:32:34.658Z,15.50
2023-05-05T22:36:16.527Z,15.60
2023-05-05T22:39:58.374Z,15.60
2023-05-05T22:43:40.208Z,15.60
2023-05-05T22:47:22.006Z,15.60
2023-05-05T22:51:03.849Z,15.60
2023-05-05T22:54:45.603Z,15.60
2023-05-05T22:58:27.293Z,15.60
2023-05-05T23:02:09.103Z,15.60
2023-05-05T23:05:51.088Z,15.60
2023-05-05T23:09:32.872Z,15.50
2023-05-05T23:13:14.715Z,15.60
2023-05-05T23:16:56.597Z,15.50
2023-05-05T23:20:38.367Z,15.40
2023-05-05T23:24:20.311Z,15.40
2023-05-05T23:28:02.050Z,15.40
2023-05-05T23:31:44.065Z,15.40
2023-05-05T23:35:26.303Z,15.40
2023-05-05T23:39:08.128Z,15.30
2023-05-05T23:42:49.921Z,15.30
2023-05-05T23:46:31.805Z,15.30
2023-05-05T23:50:13.631Z,15.20
2023-05-05T23:53:57.247Z,15.30
2023-05-05T23:57:39.041Z,15.30
